createdAt,value
2022-11-03T00:00:02.630Z,44.68
2022-11-03T00:00:33.053Z,44.58
2022-11-03T00:01:03.492Z,44.58
2022-11-03T00:01:33.989Z,44.58
2022-11-03T00:02:04.590Z,44.58
2022-11-03T00:02:35.127Z,44.68
2022-11-03T00:03:05.873Z,44.68
2022-11-03T00:03:36.439Z,44.58
2022-11-03T00:04:06.858Z,44.48
2022-11-03T00:04:37.282Z,44.68
2022-11-03T00:05:07.703Z,44.58
2022-11-03T00:05:38.139Z,44.68
2022-11-03T00:06:09.088Z,44.68
2022-11-03T00:06:39.510Z,44.58
2022-11-03T00:07:09.953Z,44.58
2022-11-03T00:07:40.377Z,44.68
2022-11-03T00:08:41.187Z,44.58
2022-11-03T00:09:11.614Z,44.58
2022-11-03T00:09:42.039Z,44.58
2022-11-03T00:10:12.475Z,44.48
2022-11-03T00:10:42.892Z,44.48
2022-11-03T00:11:13.321Z,44.58
2022-11-03T00:11:43.768Z,44.48
2022-11-03T00:12:14.182Z,44.58
2022-11-03T00:12:44.606Z,44.68
2022-11-03T00:13:15.026Z,44.48
2022-11-03T00:13:45.448Z,44.48
2022-11-03T00:14:15.871Z,44.48
2022-11-03T00:14:46.298Z,44.58
2022-11-03T00:15:16.722Z,44.58
2022-11-03T00:15:47.158Z,44.48
2022-11-03T00:16:17.582Z,44.58
2022-11-03T00:16:48.005Z,44.58
2022-11-03T00:17:18.443Z,44.58
2022-11-03T00:17:48.868Z,44.38
2022-11-03T00:18:19.296Z,44.48
2022-11-03T00:18:49.716Z,44.38
2022-11-03T00:19:20.149Z,44.58
2022-11-03T00:19:50.573Z,44.58
2022-11-03T00:20:21.003Z,44.38
2022-11-03T00:20:51.430Z,44.48
2022-11-03T00:21:21.862Z,44.58
2022-11-03T00:21:52.297Z,44.58
2022-11-03T00:22:22.736Z,44.48
2022-11-03T00:22:53.157Z,44.58
2022-11-03T00:23:23.581Z,44.58
2022-11-03T00:23:54.002Z,44.48
2022-11-03T00:24:24.459Z,44.48
2022-11-03T00:24:54.857Z,44.58
2022-11-03T00:25:25.282Z,44.58
2022-11-03T00:25:55.705Z,44.48
2022-11-03T00:26:26.135Z,44.48
2022-11-03T00:26:56.577Z,44.38
2022-11-03T00:27:27.009Z,44.48
2022-11-03T00:27:57.474Z,44.38
2022-11-03T00:28:27.860Z,44.48
2022-11-03T00:28:58.289Z,44.48
2022-11-03T00:29:28.705Z,44.38
2022-11-03T00:29:59.130Z,44.38
2022-11-03T00:30:29.557Z,44.38
2022-11-03T00:30:59.985Z,44.38
2022-11-03T00:31:30.409Z,44.48
2022-11-03T00:32:00.839Z,44.38
2022-11-03T00:32:31.275Z,44.38
2022-11-03T00:33:01.708Z,44.38
2022-11-03T00:33:32.124Z,44.48
2022-11-03T00:34:02.555Z,44.58
2022-11-03T00:34:32.985Z,44.48
2022-11-03T00:35:03.417Z,44.48
2022-11-03T00:35:33.848Z,44.38
2022-11-03T00:36:04.303Z,44.48
2022-11-03T00:36:34.733Z,44.38
2022-11-03T00:37:05.153Z,44.38
2022-11-03T00:37:35.607Z,44.38
2022-11-03T00:38:06.042Z,44.48
2022-11-03T00:38:36.465Z,44.48
2022-11-03T00:39:06.887Z,44.58
2022-11-03T00:39:37.313Z,44.38
2022-11-03T00:40:07.746Z,44.38
2022-11-03T00:40:38.169Z,44.38
2022-11-03T00:41:08.579Z,44.38
2022-11-03T00:41:39.011Z,44.48
2022-11-03T00:42:09.444Z,44.38
2022-11-03T00:42:39.867Z,44.38
2022-11-03T00:43:10.291Z,44.58
2022-11-03T00:43:40.724Z,44.48
2022-11-03T00:44:11.177Z,44.38
2022-11-03T00:44:41.578Z,44.38
2022-11-03T00:45:12.009Z,44.38
2022-11-03T00:45:42.676Z,44.48
2022-11-03T00:46:13.098Z,44.38
2022-11-03T00:46:43.530Z,44.48
2022-11-03T00:47:13.958Z,44.38
2022-11-03T00:47:44.420Z,44.38
2022-11-03T00:48:14.831Z,44.28
2022-11-03T00:48:45.259Z,44.38
2022-11-03T00:49:15.691Z,44.38
2022-11-03T00:49:46.126Z,44.38
2022-11-03T00:50:16.551Z,44.38
2022-11-03T00:50:46.974Z,44.38
2022-11-03T00:51:17.401Z,44.28
2022-11-03T00:51:47.821Z,44.38
2022-11-03T00:52:18.271Z,44.38
2022-11-03T00:52:48.710Z,44.28
2022-11-03T00:53:19.143Z,44.38
2022-11-03T00:53:49.563Z,44.48
2022-11-03T00:54:19.984Z,44.38
2022-11-03T00:54:54.331Z,44.28
2022-11-03T00:55:25.729Z,44.28
2022-11-03T00:55:56.154Z,44.38
2022-11-03T00:56:26.580Z,44.28
2022-11-03T00:56:57.022Z,44.28
2022-11-03T00:57:27.466Z,44.28
2022-11-03T00:57:57.900Z,44.38
2022-11-03T00:58:28.330Z,44.28
2022-11-03T00:58:58.780Z,44.38
2022-11-03T00:59:29.197Z,44.38
2022-11-03T00:59:59.631Z,44.38
2022-11-03T01:00:30.051Z,44.28
2022-11-03T01:01:00.543Z,44.28
2022-11-03T01:01:31.047Z,44.38
2022-11-03T01:02:01.680Z,44.28
2022-11-03T01:02:32.211Z,44.38
2022-11-03T01:03:02.827Z,44.28
2022-11-03T01:03:33.257Z,44.38
2022-11-03T01:04:03.689Z,44.18
2022-11-03T01:04:34.105Z,44.28
2022-11-03T01:05:04.530Z,44.28
2022-11-03T01:05:34.956Z,44.28
2022-11-03T01:06:05.373Z,44.38
2022-11-03T01:06:35.793Z,44.38
2022-11-03T01:07:06.308Z,44.28
2022-11-03T01:07:36.700Z,44.28
2022-11-03T01:08:07.139Z,44.28
2022-11-03T01:08:37.560Z,44.28
2022-11-03T01:09:08.032Z,44.18
2022-11-03T01:09:38.480Z,44.28
2022-11-03T01:10:08.904Z,44.28
2022-11-03T01:10:39.330Z,44.28
2022-11-03T01:11:09.751Z,44.18
2022-11-03T01:11:40.173Z,44.18
2022-11-03T01:12:10.598Z,44.28
2022-11-03T01:12:41.035Z,44.18
2022-11-03T01:13:11.458Z,44.28
2022-11-03T01:13:41.878Z,44.18
2022-11-03T01:14:12.302Z,44.28
2022-11-03T01:14:42.729Z,44.18
2022-11-03T01:15:13.149Z,44.18
2022-11-03T01:15:43.576Z,44.28
2022-11-03T01:16:14.000Z,44.18
2022-11-03T01:16:44.429Z,44.18
2022-11-03T01:17:14.860Z,44.28
2022-11-03T01:17:45.287Z,44.18
2022-11-03T01:18:15.738Z,44.18
2022-11-03T01:18:46.165Z,44.18
2022-11-03T01:19:16.585Z,44.18
2022-11-03T01:19:47.013Z,44.28
2022-11-03T01:20:17.447Z,44.18
2022-11-03T01:20:47.874Z,44.18
2022-11-03T01:21:18.311Z,44.28
2022-11-03T01:21:48.732Z,44.18
2022-11-03T01:22:19.164Z,44.28
2022-11-03T01:22:49.582Z,44.18
2022-11-03T01:23:20.024Z,44.18
2022-11-03T01:23:50.453Z,44.28
2022-11-03T01:24:20.893Z,44.28
2022-11-03T01:24:51.325Z,44.28
2022-11-03T01:25:21.735Z,44.18
2022-11-03T01:25:52.159Z,44.18
2022-11-03T01:26:22.582Z,44.18
2022-11-03T01:26:53.024Z,44.28
2022-11-03T01:27:23.449Z,44.28
2022-11-03T01:27:53.997Z,44.28
2022-11-03T01:28:24.444Z,44.28
2022-11-03T01:28:54.869Z,44.18
2022-11-03T01:29:25.308Z,44.28
2022-11-03T01:29:55.739Z,44.28
2022-11-03T01:30:26.166Z,44.18
2022-11-03T01:30:56.589Z,44.18
2022-11-03T01:31:27.024Z,44.18
2022-11-03T01:31:57.459Z,44.18
2022-11-03T01:32:27.882Z,44.18
2022-11-03T01:32:58.322Z,44.18
2022-11-03T01:33:28.765Z,44.18
2022-11-03T01:33:59.198Z,44.28
2022-11-03T01:34:29.624Z,44.08
2022-11-03T01:35:00.040Z,44.08
2022-11-03T01:35:30.462Z,44.18
2022-11-03T01:36:00.894Z,44.28
2022-11-03T01:36:31.318Z,44.18
2022-11-03T01:37:01.744Z,44.08
2022-11-03T01:37:32.182Z,44.18
2022-11-03T01:38:02.627Z,44.08
2022-11-03T01:38:33.067Z,44.18
2022-11-03T01:39:03.483Z,44.08
2022-11-03T01:39:33.911Z,44.08
2022-11-03T01:40:04.329Z,44.08
2022-11-03T01:40:34.753Z,44.08
2022-11-03T01:41:05.174Z,44.08
2022-11-03T01:41:35.615Z,44.08
2022-11-03T01:42:06.036Z,44.18
2022-11-03T01:42:36.464Z,44.18
2022-11-03T01:43:07.318Z,44.08
2022-11-03T01:43:37.864Z,44.08
2022-11-03T01:44:08.300Z,44.18
2022-11-03T01:44:38.722Z,44.18
2022-11-03T01:45:09.143Z,44.18
2022-11-03T01:45:39.562Z,44.08
2022-11-03T01:46:09.985Z,44.28
2022-11-03T01:46:40.412Z,44.28
2022-11-03T01:47:10.834Z,44.08
2022-11-03T01:47:41.254Z,44.08
2022-11-03T01:48:11.700Z,44.08
2022-11-03T01:48:42.162Z,44.18
2022-11-03T01:49:12.583Z,44.18
2022-11-03T01:49:43.010Z,44.08
2022-11-03T01:50:13.445Z,44.08
2022-11-03T01:50:43.866Z,44.08
2022-11-03T01:51:14.292Z,44.08
2022-11-03T01:51:44.724Z,44.18
2022-11-03T01:52:15.147Z,44.18
2022-11-03T01:52:45.571Z,44.08
2022-11-03T01:53:15.991Z,44.08
2022-11-03T01:53:46.425Z,44.08
2022-11-03T01:54:16.847Z,44.08
2022-11-03T01:54:47.276Z,44.08
2022-11-03T01:55:17.714Z,44.08
2022-11-03T01:55:48.135Z,44.08
2022-11-03T01:56:18.557Z,44.18
2022-11-03T01:56:48.977Z,44.18
2022-11-03T01:57:19.401Z,44.08
2022-11-03T01:57:49.824Z,44.18
2022-11-03T01:58:20.266Z,44.08
2022-11-03T01:58:50.716Z,44.08
2022-11-03T01:59:21.138Z,44.18
2022-11-03T01:59:51.563Z,44.08
2022-11-03T02:00:21.985Z,44.18
2022-11-03T02:00:52.485Z,44.08
2022-11-03T02:01:23.071Z,44.08
2022-11-03T02:01:53.600Z,44.18
2022-11-03T02:02:24.114Z,44.18
2022-11-03T02:02:54.517Z,44.08
2022-11-03T02:03:24.944Z,44.18
2022-11-03T02:03:55.376Z,44.18
2022-11-03T02:04:25.799Z,44.08
2022-11-03T02:04:56.227Z,44.08
2022-11-03T02:05:26.659Z,44.18
2022-11-03T02:05:57.074Z,44.18
2022-11-03T02:06:27.494Z,44.08
2022-11-03T02:06:57.923Z,44.08
2022-11-03T02:07:28.349Z,44.18
2022-11-03T02:07:58.820Z,44.08
2022-11-03T02:08:29.253Z,43.98
2022-11-03T02:08:59.706Z,43.98
2022-11-03T02:09:30.133Z,44.08
2022-11-03T02:10:00.585Z,44.18
2022-11-03T02:10:31.009Z,44.08
2022-11-03T02:11:01.437Z,43.98
2022-11-03T02:11:31.859Z,44.08
2022-11-03T02:12:02.283Z,44.08
2022-11-03T02:12:32.723Z,44.08
2022-11-03T02:13:03.328Z,43.98
2022-11-03T02:13:33.772Z,44.08
2022-11-03T02:14:04.194Z,43.98
2022-11-03T02:14:34.617Z,43.98
2022-11-03T02:15:05.041Z,43.98
2022-11-03T02:15:35.463Z,44.08
2022-11-03T02:16:05.885Z,44.08
2022-11-03T02:16:36.309Z,44.18
2022-11-03T02:17:06.736Z,44.08
2022-11-03T02:17:37.153Z,43.98
2022-11-03T02:18:07.583Z,44.08
2022-11-03T02:18:38.021Z,44.08
2022-11-03T02:19:08.449Z,44.08
2022-11-03T02:19:38.878Z,43.98
2022-11-03T02:20:09.305Z,43.98
2022-11-03T02:20:39.731Z,43.98
2022-11-03T02:21:10.150Z,44.08
2022-11-03T02:21:40.589Z,43.98
2022-11-03T02:22:11.013Z,44.08
2022-11-03T02:22:41.428Z,44.08
2022-11-03T02:23:11.853Z,43.98
2022-11-03T02:23:42.279Z,44.08
2022-11-03T02:24:12.733Z,44.08
2022-11-03T02:24:43.179Z,44.08
2022-11-03T02:25:13.618Z,43.98
2022-11-03T02:25:44.023Z,43.98
2022-11-03T02:26:14.460Z,43.98
2022-11-03T02:26:44.881Z,44.08
2022-11-03T02:27:15.306Z,43.98
2022-11-03T02:27:45.737Z,43.98
2022-11-03T02:28:16.169Z,43.98
2022-11-03T02:28:46.649Z,44.08
2022-11-03T02:29:17.048Z,43.98
2022-11-03T02:29:47.471Z,43.88
2022-11-03T02:30:17.904Z,43.98
2022-11-03T02:30:48.334Z,43.88
2022-11-03T02:31:18.761Z,43.88
2022-11-03T02:31:49.188Z,43.98
2022-11-03T02:32:19.614Z,43.98
2022-11-03T02:32:50.036Z,43.98
2022-11-03T02:33:20.460Z,44.08
2022-11-03T02:33:50.883Z,43.98
2022-11-03T02:34:21.327Z,43.98
2022-11-03T02:34:51.748Z,43.98
2022-11-03T02:35:22.193Z,43.88
2022-11-03T02:35:52.607Z,43.98
2022-11-03T02:36:23.031Z,43.98
2022-11-03T02:36:53.466Z,43.98
2022-11-03T02:37:23.902Z,43.88
2022-11-03T02:37:54.323Z,43.88
2022-11-03T02:38:24.768Z,43.98
2022-11-03T02:38:55.198Z,44.08
2022-11-03T02:39:25.631Z,43.98
2022-11-03T02:39:56.079Z,43.88
2022-11-03T02:40:26.509Z,43.88
2022-11-03T02:40:56.934Z,44.08
2022-11-03T02:41:27.359Z,43.98
2022-11-03T02:41:57.783Z,43.98
2022-11-03T02:42:28.203Z,43.88
2022-11-03T02:42:58.635Z,43.98
2022-11-03T02:43:29.054Z,43.88
2022-11-03T02:43:59.508Z,43.88
2022-11-03T02:44:29.935Z,43.88
2022-11-03T02:45:00.356Z,43.98
2022-11-03T02:45:30.781Z,43.98
2022-11-03T02:46:01.202Z,43.88
2022-11-03T02:46:31.651Z,43.88
2022-11-03T02:47:02.073Z,43.88
2022-11-03T02:47:32.489Z,43.88
2022-11-03T02:48:02.914Z,43.88
2022-11-03T02:48:33.336Z,43.98
2022-11-03T02:49:03.754Z,43.98
2022-11-03T02:49:34.191Z,43.98
2022-11-03T02:50:04.627Z,43.98
2022-11-03T02:50:35.045Z,43.98
2022-11-03T02:51:05.471Z,43.88
2022-11-03T02:51:35.900Z,43.98
2022-11-03T02:52:06.323Z,43.88
2022-11-03T02:52:36.746Z,43.88
2022-11-03T02:53:07.489Z,43.98
2022-11-03T02:53:38.057Z,43.98
2022-11-03T02:54:08.469Z,44.08
2022-11-03T02:54:38.907Z,43.98
2022-11-03T02:55:09.330Z,43.88
2022-11-03T02:55:39.755Z,43.88
2022-11-03T02:56:10.185Z,43.88
2022-11-03T02:56:40.609Z,43.98
2022-11-03T02:57:11.034Z,43.88
2022-11-03T02:57:41.456Z,43.88
2022-11-03T02:58:11.925Z,43.88
2022-11-03T02:58:42.363Z,43.98
2022-11-03T02:59:12.806Z,43.77
2022-11-03T02:59:43.231Z,43.77
2022-11-03T03:00:13.657Z,43.98
2022-11-03T03:00:44.131Z,43.88
2022-11-03T03:01:14.697Z,43.98
2022-11-03T03:01:45.533Z,43.88
2022-11-03T03:02:16.180Z,43.98
2022-11-03T03:02:46.586Z,43.77
2022-11-03T03:03:17.013Z,43.98
2022-11-03T03:03:47.434Z,43.88
2022-11-03T03:04:17.861Z,43.98
2022-11-03T03:04:48.297Z,43.77
2022-11-03T03:05:18.721Z,43.88
2022-11-03T03:05:49.145Z,43.88
2022-11-03T03:06:19.593Z,43.88
2022-11-03T03:06:50.015Z,43.77
2022-11-03T03:07:20.436Z,43.77
2022-11-03T03:07:50.859Z,43.88
2022-11-03T03:08:21.289Z,43.88
2022-11-03T03:08:51.714Z,43.77
2022-11-03T03:09:22.157Z,43.88
2022-11-03T03:09:52.594Z,43.88
2022-11-03T03:10:23.036Z,43.88
2022-11-03T03:10:53.460Z,43.77
2022-11-03T03:11:23.927Z,43.88
2022-11-03T03:11:54.308Z,43.88
2022-11-03T03:12:24.745Z,43.88
2022-11-03T03:12:55.194Z,43.88
2022-11-03T03:13:25.621Z,43.77
2022-11-03T03:13:56.045Z,43.77
2022-11-03T03:14:26.484Z,43.77
2022-11-03T03:14:56.905Z,43.68
2022-11-03T03:15:27.333Z,43.77
2022-11-03T03:15:57.766Z,43.77
2022-11-03T03:16:28.189Z,43.88
2022-11-03T03:16:58.615Z,43.77
2022-11-03T03:17:29.207Z,43.77
2022-11-03T03:17:59.660Z,43.88
2022-11-03T03:18:30.032Z,43.88
2022-11-03T03:19:00.455Z,43.88
2022-11-03T03:19:30.878Z,43.77
2022-11-03T03:20:01.317Z,43.77
2022-11-03T03:20:31.736Z,43.77
2022-11-03T03:21:02.184Z,43.77
2022-11-03T03:21:32.609Z,43.88
2022-11-03T03:22:03.035Z,43.77
2022-11-03T03:22:33.461Z,43.77
2022-11-03T03:23:06.241Z,43.77
2022-11-03T03:23:39.209Z,43.88
2022-11-03T03:24:09.632Z,43.77
2022-11-03T03:24:40.069Z,43.77
2022-11-03T03:25:10.509Z,43.88
2022-11-03T03:25:40.943Z,43.77
2022-11-03T03:26:11.365Z,43.77
2022-11-03T03:26:41.815Z,43.77
2022-11-03T03:27:12.245Z,43.77
2022-11-03T03:27:42.684Z,43.77
2022-11-03T03:28:13.106Z,43.77
2022-11-03T03:28:43.544Z,43.77
2022-11-03T03:29:13.963Z,43.77
2022-11-03T03:29:44.405Z,43.68
2022-11-03T03:30:14.830Z,43.68
2022-11-03T03:30:45.263Z,43.68
2022-11-03T03:31:15.691Z,43.88
2022-11-03T03:31:46.115Z,43.77
2022-11-03T03:32:16.545Z,43.88
2022-11-03T03:32:46.963Z,43.88
2022-11-03T03:33:17.414Z,43.68
2022-11-03T03:33:48.173Z,43.88
2022-11-03T03:34:33.981Z,43.88
2022-11-03T03:34:54.010Z,43.88
2022-11-03T03:35:24.455Z,43.68
2022-11-03T03:35:54.881Z,43.68
2022-11-03T03:36:25.329Z,43.68
2022-11-03T03:36:55.760Z,43.77
2022-11-03T03:37:26.182Z,43.77
2022-11-03T03:37:56.610Z,43.77
2022-11-03T03:38:27.034Z,43.77
2022-11-03T03:38:57.463Z,43.77
2022-11-03T03:39:27.891Z,43.68
2022-11-03T03:39:58.316Z,43.77
2022-11-03T03:40:28.752Z,43.77
2022-11-03T03:40:59.179Z,43.68
2022-11-03T03:41:29.614Z,43.77
2022-11-03T03:42:00.038Z,43.77
2022-11-03T03:42:30.487Z,43.88
2022-11-03T03:43:00.917Z,43.68
2022-11-03T03:43:31.345Z,43.68
2022-11-03T03:44:01.766Z,43.68
2022-11-03T03:44:32.196Z,43.68
2022-11-03T03:45:02.629Z,43.68
2022-11-03T03:45:33.047Z,43.77
2022-11-03T03:46:03.473Z,43.68
2022-11-03T03:46:33.891Z,43.68
2022-11-03T03:47:04.316Z,43.77
2022-11-03T03:47:34.760Z,43.68
2022-11-03T03:48:05.166Z,43.68
2022-11-03T03:48:35.588Z,43.77
2022-11-03T03:49:06.013Z,43.77
2022-11-03T03:49:36.436Z,43.77
2022-11-03T03:50:06.877Z,43.68
2022-11-03T03:50:37.300Z,43.68
2022-11-03T03:51:07.729Z,43.68
2022-11-03T03:51:38.152Z,43.77
2022-11-03T03:52:08.573Z,43.77
2022-11-03T03:52:38.999Z,43.68
2022-11-03T03:53:09.421Z,43.77
2022-11-03T03:53:39.842Z,43.68
2022-11-03T03:54:10.289Z,43.68
2022-11-03T03:54:40.711Z,43.58
2022-11-03T03:55:11.178Z,43.68
2022-11-03T03:55:41.602Z,43.68
2022-11-03T03:56:12.047Z,43.77
2022-11-03T03:56:42.485Z,43.77
2022-11-03T03:57:12.908Z,43.68
2022-11-03T03:57:43.340Z,43.77
2022-11-03T03:58:13.763Z,43.68
2022-11-03T03:58:44.204Z,43.77
2022-11-03T03:59:14.627Z,43.68
2022-11-03T03:59:45.064Z,43.68
2022-11-03T04:00:15.494Z,43.68
2022-11-03T04:00:46.087Z,43.77
2022-11-03T04:01:16.610Z,43.58
2022-11-03T04:01:47.154Z,43.58
2022-11-03T04:02:17.796Z,43.68
2022-11-03T04:02:48.246Z,43.58
2022-11-03T04:03:18.677Z,43.68
2022-11-03T04:03:49.088Z,43.58
2022-11-03T04:04:19.512Z,43.58
2022-11-03T04:04:49.932Z,43.58
2022-11-03T04:05:20.355Z,43.68
2022-11-03T04:05:50.805Z,43.68
2022-11-03T04:06:21.221Z,43.68
2022-11-03T04:06:51.654Z,43.68
2022-11-03T04:07:22.064Z,43.77
2022-11-03T04:07:52.489Z,43.68
2022-11-03T04:08:22.934Z,43.68
2022-11-03T04:08:53.340Z,43.68
2022-11-03T04:09:23.766Z,43.58
2022-11-03T04:09:54.211Z,43.68
2022-11-03T04:10:24.638Z,43.68
2022-11-03T04:10:55.079Z,43.68
2022-11-03T04:11:25.507Z,43.58
2022-11-03T04:11:55.930Z,43.58
2022-11-03T04:12:26.363Z,43.68
2022-11-03T04:12:56.788Z,43.58
2022-11-03T04:13:27.215Z,43.58
2022-11-03T04:13:57.652Z,43.58
2022-11-03T04:14:28.072Z,43.58
2022-11-03T04:14:58.500Z,43.58
2022-11-03T04:15:28.951Z,43.68
2022-11-03T04:15:59.392Z,43.68
2022-11-03T04:16:29.801Z,43.68
2022-11-03T04:17:00.226Z,43.58
2022-11-03T04:17:30.645Z,43.58
2022-11-03T04:18:01.066Z,43.68
2022-11-03T04:18:31.505Z,43.58
2022-11-03T04:19:01.914Z,43.58
2022-11-03T04:19:32.336Z,43.58
2022-11-03T04:20:02.775Z,43.58
2022-11-03T04:20:33.192Z,43.58
2022-11-03T04:21:03.642Z,43.58
2022-11-03T04:21:34.064Z,43.68
2022-11-03T04:22:04.502Z,43.58
2022-11-03T04:22:34.912Z,43.58
2022-11-03T04:23:05.361Z,43.58
2022-11-03T04:23:35.796Z,43.48
2022-11-03T04:24:06.220Z,43.58
2022-11-03T04:24:36.646Z,43.58
2022-11-03T04:25:07.067Z,43.58
2022-11-03T04:25:37.489Z,43.68
2022-11-03T04:26:07.929Z,43.48
2022-11-03T04:26:38.363Z,43.68
2022-11-03T04:27:08.797Z,43.58
2022-11-03T04:27:39.224Z,43.58
2022-11-03T04:28:09.644Z,43.58
2022-11-03T04:28:40.071Z,43.58
2022-11-03T04:29:10.520Z,43.68
2022-11-03T04:29:40.949Z,43.68
2022-11-03T04:30:11.378Z,43.68
2022-11-03T04:30:41.831Z,43.58
2022-11-03T04:31:12.248Z,43.58
2022-11-03T04:31:42.690Z,43.77
2022-11-03T04:32:13.108Z,43.98
2022-11-03T04:32:43.542Z,43.68
2022-11-03T04:33:13.965Z,43.68
2022-11-03T04:33:44.391Z,43.68
2022-11-03T04:34:14.809Z,43.68
2022-11-03T04:34:45.229Z,43.68
2022-11-03T04:35:15.657Z,43.68
2022-11-03T04:35:46.086Z,43.68
2022-11-03T04:36:16.517Z,43.68
2022-11-03T04:36:46.950Z,43.68
2022-11-03T04:37:17.383Z,43.58
2022-11-03T04:37:48.195Z,43.58
2022-11-03T04:38:18.829Z,43.58
2022-11-03T04:38:49.319Z,43.58
2022-11-03T04:39:19.746Z,43.48
2022-11-03T04:39:50.329Z,43.48
2022-11-03T04:40:20.754Z,43.48
2022-11-03T04:40:53.722Z,43.58
2022-11-03T04:41:25.117Z,43.48
2022-11-03T04:41:55.643Z,43.58
2022-11-03T04:42:26.082Z,43.48
2022-11-03T04:42:56.506Z,43.48
2022-11-03T04:43:26.931Z,43.48
2022-11-03T04:43:57.356Z,43.48
2022-11-03T04:44:27.786Z,43.58
2022-11-03T04:44:58.214Z,43.48
2022-11-03T04:45:28.683Z,43.58
2022-11-03T04:45:59.127Z,43.58
2022-11-03T04:46:29.555Z,43.38
2022-11-03T04:46:59.993Z,43.38
2022-11-03T04:47:30.435Z,43.48
2022-11-03T04:48:00.859Z,43.38
2022-11-03T04:48:31.295Z,43.48
2022-11-03T04:49:01.723Z,43.38
2022-11-03T04:49:32.164Z,43.48
2022-11-03T04:50:02.600Z,43.48
2022-11-03T04:50:33.007Z,43.48
2022-11-03T04:51:03.432Z,43.38
2022-11-03T04:51:33.882Z,43.38
2022-11-03T04:52:04.301Z,43.38
2022-11-03T04:52:34.722Z,43.38
2022-11-03T04:53:05.591Z,43.48
2022-11-03T04:53:36.218Z,43.38
2022-11-03T04:54:06.642Z,43.48
2022-11-03T04:54:37.180Z,43.48
2022-11-03T04:55:07.600Z,43.48
2022-11-03T04:55:38.032Z,43.58
2022-11-03T04:56:08.455Z,43.38
2022-11-03T04:56:38.972Z,43.48
2022-11-03T04:57:09.430Z,43.38
2022-11-03T04:57:39.873Z,43.48
2022-11-03T04:58:10.310Z,43.38
2022-11-03T04:58:40.750Z,43.38
2022-11-03T04:59:11.238Z,43.38
2022-11-03T04:59:41.641Z,43.38
2022-11-03T05:00:12.084Z,43.38
2022-11-03T05:00:42.557Z,43.38
2022-11-03T05:01:13.123Z,43.38
2022-11-03T05:01:43.901Z,43.38
2022-11-03T05:02:14.401Z,43.38
2022-11-03T05:02:44.821Z,43.38
2022-11-03T05:03:15.249Z,43.38
2022-11-03T05:03:45.674Z,43.38
2022-11-03T05:04:16.103Z,43.48
2022-11-03T05:04:46.533Z,43.38
2022-11-03T05:05:16.951Z,43.38
2022-11-03T05:05:47.379Z,43.38
2022-11-03T05:06:17.800Z,43.38
2022-11-03T05:06:48.252Z,43.27
2022-11-03T05:07:18.679Z,43.38
2022-11-03T05:07:49.093Z,43.38
2022-11-03T05:08:19.519Z,43.38
2022-11-03T05:08:49.937Z,43.48
2022-11-03T05:09:20.357Z,43.48
2022-11-03T05:09:50.786Z,43.38
2022-11-03T05:10:21.208Z,43.38
2022-11-03T05:10:51.635Z,43.38
2022-11-03T05:11:22.059Z,43.48
2022-11-03T05:11:52.519Z,43.48
2022-11-03T05:12:22.960Z,43.27
2022-11-03T05:12:53.378Z,43.38
2022-11-03T05:13:23.812Z,43.48
2022-11-03T05:13:54.235Z,43.38
2022-11-03T05:14:24.667Z,43.38
2022-11-03T05:14:58.260Z,43.38
2022-11-03T05:15:29.475Z,43.50
2022-11-03T05:15:59.901Z,43.38
2022-11-03T05:16:30.351Z,43.27
2022-11-03T05:17:00.780Z,43.38
2022-11-03T05:17:31.205Z,43.40
2022-11-03T05:18:01.624Z,43.27
2022-11-03T05:18:32.051Z,43.27
2022-11-03T05:19:02.470Z,43.27
2022-11-03T05:19:32.896Z,43.38
2022-11-03T05:20:03.322Z,43.38
2022-11-03T05:20:36.264Z,43.18
2022-11-03T05:21:06.882Z,43.27
2022-11-03T05:21:37.308Z,43.27
2022-11-03T05:22:07.743Z,43.27
2022-11-03T05:22:38.163Z,43.18
2022-11-03T05:23:09.028Z,43.18
2022-11-03T05:23:39.627Z,43.27
2022-11-03T05:24:10.154Z,43.27
2022-11-03T05:24:40.547Z,43.27
2022-11-03T05:25:10.998Z,43.27
2022-11-03T05:25:41.422Z,43.18
2022-11-03T05:26:11.835Z,43.18
2022-11-03T05:26:42.281Z,43.18
2022-11-03T05:27:12.719Z,43.08
2022-11-03T05:27:43.137Z,43.18
2022-11-03T05:28:13.563Z,43.27
2022-11-03T05:28:43.994Z,43.27
2022-11-03T05:29:14.450Z,43.18
2022-11-03T05:29:44.845Z,43.08
2022-11-03T05:30:15.267Z,43.18
2022-11-03T05:30:45.705Z,43.19
2022-11-03T05:31:16.135Z,43.18
2022-11-03T05:31:46.590Z,43.10
2022-11-03T05:32:17.026Z,43.08
2022-11-03T05:32:47.454Z,43.19
2022-11-03T05:33:17.872Z,43.08
2022-11-03T05:33:48.294Z,43.18
2022-11-03T05:34:18.715Z,43.08
2022-11-03T05:34:49.141Z,43.10
2022-11-03T05:35:19.569Z,43.08
2022-11-03T05:35:50.006Z,43.08
2022-11-03T05:36:20.429Z,43.08
2022-11-03T05:36:50.848Z,43.19
2022-11-03T05:37:26.015Z,43.08
2022-11-03T05:37:56.609Z,42.97
2022-11-03T05:38:27.026Z,43.08
2022-11-03T05:38:57.475Z,43.08
2022-11-03T05:39:27.906Z,43.08
2022-11-03T05:39:58.336Z,43.10
2022-11-03T05:40:28.749Z,43.10
2022-11-03T05:40:59.217Z,43.08
2022-11-03T05:41:29.642Z,43.08
2022-11-03T05:42:00.074Z,43.10
2022-11-03T05:42:30.508Z,42.99
2022-11-03T05:43:00.939Z,43.10
2022-11-03T05:43:31.363Z,42.90
2022-11-03T05:44:01.793Z,43.10
2022-11-03T05:44:32.216Z,42.97
2022-11-03T05:45:02.643Z,42.99
2022-11-03T05:45:33.069Z,42.99
2022-11-03T05:46:03.642Z,42.88
2022-11-03T05:46:34.100Z,42.99
2022-11-03T05:47:07.423Z,42.99
2022-11-03T05:47:38.797Z,42.97
2022-11-03T05:48:09.500Z,43.10
2022-11-03T05:48:39.994Z,42.99
2022-11-03T05:49:10.431Z,42.99
2022-11-03T05:49:40.869Z,42.90
2022-11-03T05:50:11.294Z,42.99
2022-11-03T05:50:41.716Z,42.97
2022-11-03T05:51:12.146Z,42.88
2022-11-03T05:51:42.569Z,42.88
2022-11-03T05:52:13.017Z,42.99
2022-11-03T05:52:43.464Z,42.88
2022-11-03T05:53:13.895Z,42.97
2022-11-03T05:53:44.329Z,42.90
2022-11-03T05:54:18.592Z,42.90
2022-11-03T05:54:50.067Z,42.90
2022-11-03T05:55:20.513Z,42.80
2022-11-03T05:55:50.937Z,42.99
2022-11-03T05:56:21.363Z,42.77
2022-11-03T05:56:51.782Z,42.88
2022-11-03T05:57:22.202Z,42.80
2022-11-03T05:57:52.646Z,42.90
2022-11-03T05:58:23.091Z,42.99
2022-11-03T05:58:53.505Z,42.99
2022-11-03T05:59:23.935Z,42.90
2022-11-03T05:59:54.357Z,42.90
2022-11-03T06:00:24.782Z,42.90
2022-11-03T06:00:55.206Z,42.80
2022-11-03T06:01:25.726Z,42.90
2022-11-03T06:01:56.369Z,42.77
2022-11-03T06:02:26.892Z,42.77
2022-11-03T06:02:57.401Z,42.68
2022-11-03T06:03:27.798Z,42.77
2022-11-03T06:03:58.226Z,42.80
2022-11-03T06:04:28.652Z,42.80
2022-11-03T06:04:59.088Z,42.90
2022-11-03T06:05:29.509Z,42.90
2022-11-03T06:05:59.931Z,42.90
2022-11-03T06:06:32.403Z,42.80
2022-11-03T06:07:03.089Z,42.80
2022-11-03T06:07:33.510Z,42.97
2022-11-03T06:08:04.278Z,42.88
2022-11-03T06:08:34.833Z,42.69
2022-11-03T06:09:05.266Z,42.77
2022-11-03T06:09:35.685Z,42.99
2022-11-03T06:10:06.108Z,42.90
2022-11-03T06:10:36.551Z,42.99
2022-11-03T06:11:06.975Z,42.90
2022-11-03T06:11:37.402Z,42.77
2022-11-03T06:12:07.825Z,42.80
2022-11-03T06:12:38.251Z,42.77
2022-11-03T06:13:09.175Z,42.88
2022-11-03T06:13:39.800Z,42.90
2022-11-03T06:14:10.222Z,42.88
2022-11-03T06:14:40.646Z,42.80
2022-11-03T06:15:11.081Z,42.77
2022-11-03T06:15:41.528Z,42.80
2022-11-03T06:16:11.958Z,42.80
2022-11-03T06:16:42.384Z,42.68
2022-11-03T06:17:12.803Z,42.88
2022-11-03T06:17:43.263Z,42.80
2022-11-03T06:18:13.666Z,42.77
2022-11-03T06:18:44.091Z,42.80
2022-11-03T06:19:14.526Z,42.80
2022-11-03T06:19:44.944Z,42.80
2022-11-03T06:20:15.363Z,42.77
2022-11-03T06:20:45.788Z,42.77
2022-11-03T06:21:16.229Z,42.77
2022-11-03T06:21:46.651Z,42.80
2022-11-03T06:22:17.081Z,42.68
2022-11-03T06:22:47.523Z,42.80
2022-11-03T06:23:17.970Z,42.80
2022-11-03T06:23:48.393Z,42.69
2022-11-03T06:24:18.818Z,42.69
2022-11-03T06:24:49.237Z,42.77
2022-11-03T06:25:19.675Z,42.69
2022-11-03T06:25:50.113Z,42.68
2022-11-03T06:26:20.536Z,42.68
2022-11-03T06:26:50.958Z,42.68
2022-11-03T06:27:21.380Z,42.69
2022-11-03T06:27:51.819Z,42.69
2022-11-03T06:28:22.249Z,42.68
2022-11-03T06:28:52.673Z,42.57
2022-11-03T06:29:23.106Z,42.68
2022-11-03T06:29:53.537Z,42.68
2022-11-03T06:30:23.956Z,42.57
2022-11-03T06:30:54.376Z,42.60
2022-11-03T06:31:24.801Z,42.68
2022-11-03T06:31:55.225Z,42.68
2022-11-03T06:32:25.644Z,42.57
2022-11-03T06:32:56.108Z,42.57